createdAt,value
2019-01-11T00:01:15.788Z,68.83
2019-01-11T00:04:11.203Z,77.20
2019-01-11T00:07:07.332Z,72.70
2019-01-11T00:10:02.960Z,70.80
2019-01-11T00:12:58.346Z,90.10
2019-01-11T00:15:53.803Z,78.00
2019-01-11T00:18:49.565Z,68.13
2019-01-11T00:21:44.906Z,89.13
2019-01-11T00:24:40.742Z,84.67
2019-01-11T00:27:35.903Z,79.27
2019-01-11T00:30:31.862Z,92.57
2019-01-11T00:33:27.990Z,91.83
2019-01-11T00:36:23.734Z,119.60
2019-01-11T00:39:19.613Z,87.93
2019-01-11T00:42:15.476Z,120.70
2019-01-11T00:45:11.480Z,125.60
2019-01-11T00:48:07.339Z,99.53
2019-01-11T00:51:03.022Z,123.03
2019-01-11T00:53:59.128Z,98.03
2019-01-11T00:56:54.687Z,109.73
2019-01-11T00:59:50.163Z,115.77
2019-01-11T01:02:45.819Z,109.63
2019-01-11T01:05:42.037Z,115.80
2019-01-11T01:08:37.783Z,122.87
2019-01-11T01:11:33.590Z,116.33
2019-01-11T01:14:29.157Z,127.03
2019-01-11T01:17:25.122Z,95.80
2019-01-11T01:20:21.254Z,111.73
2019-01-11T01:23:16.759Z,116.27
2019-01-11T01:26:12.684Z,120.73
2019-01-11T01:29:08.695Z,119.97
2019-01-11T01:32:04.423Z,122.33
2019-01-11T01:35:00.975Z,119.43
2019-01-11T01:37:57.062Z,113.20
2019-01-11T01:40:52.923Z,125.83
2019-01-11T01:43:48.559Z,119.50
2019-01-11T01:46:44.563Z,98.37
2019-01-11T01:49:40.306Z,102.23
2019-01-11T01:52:36.314Z,120.27
2019-01-11T01:55:31.786Z,112.97
2019-01-11T01:58:27.080Z,120.67
2019-01-11T02:01:22.524Z,117.13
2019-01-11T02:04:18.454Z,111.37
2019-01-11T02:07:14.799Z,127.83
2019-01-11T02:10:12.788Z,122.10
2019-01-11T02:13:08.410Z,116.63
2019-01-11T02:16:04.617Z,119.90
2019-01-11T02:19:00.590Z,127.90
2019-01-11T02:21:56.988Z,122.00
2019-01-11T02:24:53.087Z,134.07
2019-01-11T02:27:49.543Z,126.53
2019-01-11T02:30:45.357Z,125.60
2019-01-11T02:33:41.818Z,124.57
2019-01-11T02:36:38.148Z,120.53
2019-01-11T02:39:34.283Z,115.13
2019-01-11T02:42:29.915Z,117.57
2019-01-11T02:45:26.403Z,117.97
2019-01-11T02:48:22.237Z,116.63
2019-01-11T02:51:18.795Z,120.00
2019-01-11T02:54:14.634Z,117.07
2019-01-11T02:57:10.747Z,115.70
2019-01-11T03:00:07.576Z,117.57
2019-01-11T03:03:05.054Z,116.03
2019-01-11T03:06:01.292Z,111.70
2019-01-11T03:08:57.707Z,112.30
2019-01-11T03:11:53.855Z,114.10
2019-01-11T03:14:53.467Z,111.87
2019-01-11T03:17:49.795Z,108.60
2019-01-11T03:20:47.247Z,110.17
2019-01-11T03:23:43.024Z,104.50
2019-01-11T03:26:39.206Z,101.40
2019-01-11T03:29:34.924Z,107.40
2019-01-11T03:32:31.428Z,92.73
2019-01-11T03:35:27.382Z,103.10
2019-01-11T03:38:24.251Z,101.63
2019-01-11T03:41:20.064Z,100.83
2019-01-11T03:44:16.381Z,102.67
2019-01-11T03:47:11.971Z,102.70
2019-01-11T03:50:08.841Z,94.83
2019-01-11T03:53:04.269Z,98.03
2019-01-11T03:56:00.600Z,93.40
2019-01-11T03:58:56.208Z,87.67
2019-01-11T04:01:51.997Z,91.07
2019-01-11T04:04:48.151Z,89.17
2019-01-11T04:07:43.726Z,97.63
2019-01-11T04:10:39.202Z,95.97
2019-01-11T04:13:34.686Z,99.00
2019-01-11T04:16:31.867Z,97.93
2019-01-11T04:19:27.487Z,95.43
2019-01-11T04:22:33.053Z,97.80
2019-01-11T04:25:34.902Z,97.73
2019-01-11T04:28:30.828Z,97.07
2019-01-11T04:31:26.854Z,91.30
2019-01-11T04:34:22.471Z,95.60
2019-01-11T04:37:17.979Z,95.43
2019-01-11T04:40:14.403Z,95.53
2019-01-11T04:43:10.755Z,95.23
2019-01-11T04:46:09.432Z,94.63
2019-01-11T04:49:05.723Z,93.43
2019-01-11T04:52:01.727Z,91.77
2019-01-11T04:54:58.956Z,89.60
2019-01-11T04:57:55.594Z,87.93
2019-01-11T05:00:51.217Z,85.30
2019-01-11T05:03:46.905Z,85.63
2019-01-11T05:06:42.554Z,83.60
2019-01-11T05:09:39.506Z,82.83
2019-01-11T05:12:41.065Z,82.97
2019-01-11T05:15:37.287Z,82.03
2019-01-11T05:18:32.989Z,79.23
2019-01-11T05:21:28.615Z,89.57
2019-01-11T05:24:25.089Z,86.00
2019-01-11T05:27:29.798Z,90.77
2019-01-11T05:30:26.459Z,91.40
2019-01-11T05:33:27.619Z,89.93
2019-01-11T05:36:32.671Z,82.33
2019-01-11T05:39:29.467Z,85.40
2019-01-11T05:42:27.097Z,82.17
2019-01-11T05:45:28.989Z,78.63
2019-01-11T05:48:35.308Z,81.03
2019-01-11T05:51:32.029Z,74.73
2019-01-11T05:54:34.522Z,73.77
2019-01-11T05:57:37.120Z,74.50
2019-01-11T06:00:42.953Z,76.20
2019-01-11T06:03:42.887Z,74.90
2019-01-11T06:07:19.922Z,74.57
2019-01-11T06:13:31.295Z,76.03
2019-01-11T06:16:35.152Z,72.67
2019-01-11T06:19:39.889Z,73.80
2019-01-11T06:23:10.961Z,70.17
2019-01-11T06:26:34.775Z,72.43
2019-01-11T06:29:34.973Z,67.37
2019-01-11T06:32:34.488Z,67.20
2019-01-11T06:35:32.569Z,69.23
2019-01-11T06:38:33.078Z,69.37
2019-01-11T06:41:45.997Z,69.73
2019-01-11T06:44:51.752Z,67.80
2019-01-11T06:47:56.649Z,68.37
2019-01-11T06:51:00.518Z,63.60
2019-01-11T06:54:01.404Z,66.53
2019-01-11T06:57:26.520Z,66.20
2019-01-11T07:00:24.002Z,60.90
2019-01-11T07:03:22.670Z,62.87
2019-01-11T07:06:28.704Z,62.07
2019-01-11T07:09:30.783Z,60.90
2019-01-11T07:12:47.368Z,56.73
2019-01-11T07:15:51.479Z,55.33
2019-01-11T07:18:53.276Z,59.10
2019-01-11T07:21:55.782Z,58.17
2019-01-11T07:24:52.765Z,56.80
2019-01-11T07:28:00.680Z,56.63
2019-01-11T07:31:16.313Z,59.27
2019-01-11T07:34:12.621Z,54.33
2019-01-11T07:37:16.691Z,57.43
2019-01-11T07:40:17.452Z,55.60
2019-01-11T07:43:16.658Z,55.17
2019-01-11T07:46:14.040Z,56.40
2019-01-11T07:49:23.008Z,56.00
2019-01-11T07:52:15.061Z,54.70
2019-01-11T07:55:14.106Z,56.33
2019-01-11T07:58:10.998Z,51.10
2019-01-11T08:01:17.042Z,52.90
2019-01-11T08:04:13.535Z,50.30
2019-01-11T08:07:11.965Z,53.40
2019-01-11T08:10:06.795Z,52.30
2019-01-11T08:13:09.797Z,53.20
2019-01-11T08:16:19.406Z,51.27
2019-01-11T08:19:21.767Z,51.40
2019-01-11T08:22:48.602Z,52.73
2019-01-11T08:25:58.391Z,50.50
2019-01-11T08:28:59.582Z,50.00
2019-01-11T08:32:06.654Z,47.93
2019-01-11T08:35:04.915Z,49.57
2019-01-11T08:38:01.952Z,48.40
2019-01-11T08:41:03.818Z,48.97
2019-01-11T08:44:05.812Z,49.90
2019-01-11T08:47:05.318Z,48.90
2019-01-11T08:50:05.914Z,50.03
2019-01-11T08:53:10.135Z,47.50
2019-01-11T08:56:36.159Z,48.73
2019-01-11T08:59:34.965Z,52.53
2019-01-11T09:02:31.696Z,51.10
2019-01-11T09:05:35.394Z,51.20
2019-01-11T09:08:51.217Z,50.37
2019-01-11T09:12:01.679Z,50.77
2019-01-11T09:15:19.751Z,51.07
2019-01-11T09:18:23.886Z,49.13
2019-01-11T09:21:26.513Z,50.03
2019-01-11T09:24:29.801Z,53.50
2019-01-11T09:27:36.045Z,51.00
2019-01-11T09:30:38.066Z,50.33
2019-01-11T09:34:09.729Z,49.17
2019-01-11T09:37:12.374Z,49.23
2019-01-11T09:40:44.952Z,50.90
2019-01-11T09:43:38.147Z,50.77
2019-01-11T09:46:48.802Z,50.40
2019-01-11T09:49:45.387Z,50.50
2019-01-11T09:52:46.913Z,50.17
2019-01-11T09:55:48.943Z,52.23
2019-01-11T09:58:53.519Z,49.33
2019-01-11T10:02:06.456Z,50.57
2019-01-11T10:05:05.358Z,52.43
2019-01-11T10:08:07.757Z,52.37
2019-01-11T10:11:04.335Z,51.07
2019-01-11T10:14:15.469Z,50.93
2019-01-11T10:17:15.309Z,50.13
2019-01-11T10:20:13.729Z,51.13
2019-01-11T10:23:09.192Z,52.43
2019-01-11T10:29:35.050Z,51.83
2019-01-11T10:33:36.058Z,52.50
2019-01-11T10:36:23.676Z,50.07
2019-01-11T10:39:57.670Z,52.63
2019-01-11T10:46:37.263Z,51.53
2019-01-11T10:49:35.076Z,49.73
2019-01-11T10:52:50.633Z,51.07
2019-01-11T10:55:50.961Z,50.53
2019-01-11T10:58:57.412Z,51.80
2019-01-11T11:02:08.187Z,51.67
2019-01-11T11:05:18.914Z,48.37
2019-01-11T11:08:13.328Z,52.87
2019-01-11T11:11:19.906Z,53.87
2019-01-11T11:14:07.650Z,53.53
2019-01-11T11:17:18.375Z,54.40
2019-01-11T11:20:16.321Z,53.77
2019-01-11T11:23:12.836Z,55.37
2019-01-11T11:26:08.889Z,55.47
2019-01-11T11:29:04.364Z,56.97
2019-01-11T11:32:00.847Z,55.23
2019-01-11T11:34:56.752Z,55.83
2019-01-11T11:37:52.229Z,56.47
2019-01-11T11:41:02.536Z,54.93
2019-01-11T11:44:00.652Z,58.23
2019-01-11T11:46:59.363Z,58.40
2019-01-11T11:49:55.403Z,57.27
2019-01-11T11:52:52.745Z,61.50
2019-01-11T11:55:48.484Z,63.30
2019-01-11T11:58:44.288Z,60.20
2019-01-11T12:01:40.513Z,63.43
2019-01-11T12:04:38.457Z,64.20
2019-01-11T12:07:38.094Z,64.90
2019-01-11T12:10:36.464Z,66.13
2019-01-11T12:13:34.605Z,67.97
2019-01-11T12:16:34.621Z,65.73
2019-01-11T12:19:31.145Z,67.30
2019-01-11T12:22:27.450Z,67.37
2019-01-11T12:25:23.224Z,67.37
2019-01-11T12:28:20.481Z,65.13
2019-01-11T12:31:16.120Z,65.90
2019-01-11T12:34:13.562Z,68.50
2019-01-11T12:37:09.402Z,70.03
2019-01-11T12:40:09.551Z,71.23
2019-01-11T12:43:06.139Z,71.03
2019-01-11T12:46:03.259Z,71.80
2019-01-11T12:48:59.623Z,68.30
2019-01-11T12:51:56.681Z,69.43
2019-01-11T12:54:53.827Z,67.93
2019-01-11T12:57:50.578Z,67.70
2019-01-11T13:00:46.915Z,70.73
2019-01-11T13:03:42.766Z,69.23
2019-01-11T13:06:41.312Z,68.87
2019-01-11T13:09:37.518Z,70.20
2019-01-11T13:12:33.515Z,69.93
2019-01-11T13:15:31.143Z,66.50
2019-01-11T13:18:30.798Z,67.40
2019-01-11T13:21:25.067Z,65.87
2019-01-11T13:24:21.483Z,68.17
2019-01-11T13:27:16.996Z,67.17
2019-01-11T13:30:16.597Z,68.37
2019-01-11T13:33:12.742Z,66.83
2019-01-11T13:36:14.941Z,64.77
2019-01-11T13:39:20.298Z,68.37
2019-01-11T13:42:18.220Z,68.57
2019-01-11T13:45:15.090Z,71.30
2019-01-11T13:48:11.066Z,72.40
2019-01-11T13:51:07.177Z,75.77
2019-01-11T13:54:02.885Z,74.93
2019-01-11T13:56:59.109Z,77.60
2019-01-11T14:00:00.519Z,80.53
2019-01-11T14:02:58.133Z,87.33
2019-01-11T14:05:56.114Z,85.97
2019-01-11T14:08:51.924Z,87.70
2019-01-11T14:11:50.303Z,92.83
2019-01-11T14:14:47.003Z,100.87
2019-01-11T14:17:43.727Z,99.17
2019-01-11T14:20:39.998Z,101.67
2019-01-11T14:23:36.837Z,103.17
2019-01-11T14:26:34.286Z,101.03
2019-01-11T14:29:30.313Z,98.87
2019-01-11T14:32:27.280Z,100.87
2019-01-11T14:35:25.443Z,99.83
2019-01-11T14:38:20.997Z,97.23
2019-01-11T14:41:17.298Z,97.33
2019-01-11T14:44:13.502Z,97.00
2019-01-11T14:47:09.651Z,98.23
2019-01-11T14:50:07.454Z,95.47
2019-01-11T14:53:04.467Z,97.37
2019-01-11T14:56:01.824Z,96.00
2019-01-11T14:58:58.264Z,94.27
2019-01-11T15:01:55.259Z,96.87
2019-01-11T15:04:51.190Z,96.07
2019-01-11T15:07:49.617Z,91.87
2019-01-11T15:10:46.154Z,99.27
2019-01-11T15:13:42.653Z,93.03
2019-01-11T15:16:38.273Z,97.33
2019-01-11T15:19:34.221Z,94.67
2019-01-11T15:22:30.983Z,95.33
2019-01-11T15:25:26.801Z,92.40
2019-01-11T15:28:24.241Z,94.53
2019-01-11T15:31:20.390Z,90.50
2019-01-11T15:34:16.565Z,94.03
2019-01-11T15:37:11.802Z,93.63
2019-01-11T15:40:09.393Z,90.80
2019-01-11T15:43:06.325Z,100.67
2019-01-11T15:46:14.939Z,92.87
2019-01-11T15:49:08.532Z,88.40
2019-01-11T15:52:05.481Z,91.50
2019-01-11T15:55:01.305Z,92.20
2019-01-11T15:57:56.785Z,92.43
2019-01-11T16:00:52.880Z,92.00
2019-01-11T16:03:49.081Z,90.60
2019-01-11T16:06:45.925Z,100.47
2019-01-11T16:10:01.622Z,101.80
2019-01-11T16:13:03.314Z,87.97
2019-01-11T16:16:05.980Z,90.33
2019-01-11T16:19:02.765Z,102.10
2019-01-11T16:21:59.354Z,100.03
2019-01-11T16:24:56.199Z,92.43
2019-01-11T16:27:53.442Z,89.07
2019-01-11T16:30:48.945Z,91.87
2019-01-11T16:33:46.415Z,87.37
2019-01-11T16:36:42.303Z,87.33
2019-01-11T16:39:38.265Z,86.47
2019-01-11T16:42:38.701Z,86.60
2019-01-11T16:45:35.040Z,87.90
2019-01-11T16:48:30.559Z,88.27
2019-01-11T16:51:26.032Z,83.20
2019-01-11T16:54:22.111Z,86.87
2019-01-11T16:57:18.249Z,85.43
2019-01-11T17:00:17.738Z,84.53
2019-01-11T17:03:15.171Z,86.50
2019-01-11T17:06:11.288Z,85.47
2019-01-11T17:09:08.658Z,90.67
2019-01-11T17:12:05.140Z,94.17
2019-01-11T17:15:01.109Z,94.63
2019-01-11T17:17:56.651Z,92.97
2019-01-11T17:20:54.089Z,83.33
2019-01-11T17:23:51.569Z,90.03
2019-01-11T17:26:47.599Z,95.90
2019-01-11T17:29:47.239Z,91.40
2019-01-11T17:32:43.159Z,100.80
2019-01-11T17:35:39.058Z,93.27
2019-01-11T17:38:34.829Z,101.83
2019-01-11T17:41:39.198Z,98.77
2019-01-11T17:44:34.800Z,98.70
2019-01-11T17:47:30.154Z,100.93
2019-01-11T17:50:28.000Z,103.50
2019-01-11T17:53:23.813Z,96.40
2019-01-11T17:56:19.853Z,93.13
2019-01-11T17:59:16.079Z,97.90
2019-01-11T18:02:12.002Z,102.80
2019-01-11T18:05:09.742Z,91.23
2019-01-11T18:08:05.351Z,87.80
2019-01-11T18:11:01.314Z,95.20
2019-01-11T18:13:59.493Z,91.03
2019-01-11T18:16:56.514Z,94.53
2019-01-11T18:19:53.398Z,91.23
2019-01-11T18:22:49.112Z,86.30
2019-01-11T18:25:45.335Z,94.20
2019-01-11T18:28:43.112Z,92.57
2019-01-11T18:31:39.138Z,94.30
2019-01-11T18:34:39.897Z,85.37
2019-01-11T18:37:35.877Z,89.23
2019-01-11T18:40:34.093Z,84.17
2019-01-11T18:43:30.628Z,93.07
2019-01-11T18:46:26.397Z,88.30
2019-01-11T18:49:26.248Z,86.50
2019-01-11T18:52:21.863Z,84.63
2019-01-11T18:55:22.256Z,91.57
2019-01-11T18:58:18.323Z,86.80
2019-01-11T19:01:13.788Z,84.67
2019-01-11T19:04:09.763Z,88.70
2019-01-11T19:07:05.480Z,87.13
2019-01-11T19:10:01.721Z,88.37
2019-01-11T19:12:57.948Z,88.00
2019-01-11T19:15:59.623Z,82.07
2019-01-11T19:18:55.169Z,84.10
2019-01-11T19:21:54.782Z,84.87
2019-01-11T19:24:54.277Z,86.53
2019-01-11T19:27:50.685Z,81.20
2019-01-11T19:30:47.949Z,86.03
2019-01-11T19:33:44.206Z,88.80
2019-01-11T19:36:41.834Z,90.97
2019-01-11T19:39:37.555Z,88.00
2019-01-11T19:42:38.386Z,85.43
2019-01-11T19:45:31.553Z,82.57
2019-01-11T19:48:29.648Z,88.67
2019-01-11T19:51:38.446Z,88.10
2019-01-11T19:54:26.591Z,92.83
2019-01-11T19:57:25.346Z,93.50
2019-01-11T20:00:54.231Z,93.40
2019-01-11T20:03:54.002Z,95.00
2019-01-11T20:06:46.067Z,95.90
2019-01-11T20:09:45.182Z,97.23
2019-01-11T20:12:45.454Z,96.07
2019-01-11T20:15:41.456Z,95.77
2019-01-11T20:18:41.929Z,95.60
2019-01-11T20:21:38.114Z,95.57
2019-01-11T20:24:35.619Z,91.27
2019-01-11T20:27:34.244Z,95.33
2019-01-11T20:30:31.655Z,91.03
2019-01-11T20:33:27.108Z,94.10
2019-01-11T20:36:24.710Z,93.87
2019-01-11T20:39:20.853Z,89.27
2019-01-11T20:42:17.703Z,96.30
2019-01-11T20:45:14.901Z,90.87
2019-01-11T20:48:10.470Z,94.07
2019-01-11T20:51:06.392Z,92.63
2019-01-11T20:54:01.625Z,91.10
2019-01-11T20:56:57.427Z,83.10
2019-01-11T20:59:55.193Z,86.30
2019-01-11T21:02:50.618Z,95.87
2019-01-11T21:05:47.409Z,90.27
2019-01-11T21:08:45.517Z,93.63
2019-01-11T21:11:42.082Z,90.63
2019-01-11T21:14:37.067Z,89.90
2019-01-11T21:17:34.730Z,93.23
2019-01-11T21:20:30.247Z,91.03
2019-01-11T21:23:26.561Z,98.90
2019-01-11T21:26:22.403Z,94.30
2019-01-11T21:29:18.228Z,93.77
2019-01-11T21:32:13.750Z,92.20
2019-01-11T21:35:10.790Z,92.73
2019-01-11T21:38:07.538Z,88.67
2019-01-11T21:41:04.996Z,92.60
2019-01-11T21:44:00.821Z,91.87
2019-01-11T21:46:56.031Z,89.77
2019-01-11T21:49:51.370Z,92.97
2019-01-11T21:52:47.282Z,87.20
2019-01-11T21:55:42.483Z,89.00
2019-01-11T21:58:38.071Z,87.67
2019-01-11T22:01:34.012Z,95.33
2019-01-11T22:04:29.713Z,91.43
2019-01-11T22:07:25.201Z,89.33
2019-01-11T22:10:21.373Z,88.27
2019-01-11T22:13:17.101Z,93.63
2019-01-11T22:16:13.226Z,93.30
2019-01-11T22:19:09.969Z,95.30
2019-01-11T22:22:05.686Z,92.07
2019-01-11T22:25:01.516Z,94.23
2019-01-11T22:27:56.796Z,91.03
2019-01-11T22:30:51.913Z,93.20
2019-01-11T22:33:47.857Z,97.90
2019-01-11T22:36:44.056Z,94.57
2019-01-11T22:39:39.378Z,96.73
2019-01-11T22:42:35.111Z,98.77
2019-01-11T22:45:31.139Z,98.60
2019-01-11T22:48:28.393Z,96.47
2019-01-11T22:51:24.112Z,101.70
2019-01-11T22:54:19.712Z,99.77
2019-01-11T22:57:15.345Z,98.63
2019-01-11T23:00:39.035Z,104.80
2019-01-11T23:03:47.317Z,87.50
2019-01-11T23:07:12.852Z,106.17
2019-01-11T23:10:17.586Z,99.77
2019-01-11T23:13:16.887Z,102.77
2019-01-11T23:16:40.364Z,110.13
2019-01-11T23:19:40.277Z,105.43
2019-01-11T23:22:37.207Z,99.10
2019-01-11T23:25:32.647Z,104.43
2019-01-11T23:28:29.380Z,105.60
2019-01-11T23:31:27.247Z,109.47
2019-01-11T23:34:23.156Z,102.73
2019-01-11T23:37:18.620Z,108.13
2019-01-11T23:40:16.746Z,105.13
2019-01-11T23:43:12.382Z,109.37
2019-01-11T23:46:08.193Z,89.60
2019-01-11T23:49:03.820Z,91.07
2019-01-11T23:51:59.437Z,105.03
2019-01-11T23:54:54.554Z,123.50
2019-01-11T23:57:52.102Z,131.43
